createdAt,value
2019-01-13T00:03:10.240Z,28.13
2019-01-13T00:06:30.999Z,28.77
2019-01-13T00:09:08.636Z,79.57
2019-01-13T00:11:55.364Z,48.10
2019-01-13T00:22:12.517Z,173.80
2019-01-13T00:28:38.568Z,162.50
2019-01-13T00:31:28.042Z,78.57
2019-01-13T00:39:52.513Z,33.07
2019-01-13T00:48:35.602Z,151.23
2019-01-13T00:51:21.664Z,49.47
2019-01-13T00:53:52.971Z,96.67
2019-01-13T00:56:42.004Z,183.40
2019-01-13T00:59:51.149Z,49.93
2019-01-13T01:02:27.992Z,37.27
2019-01-13T01:05:23.497Z,184.80
2019-01-13T01:08:08.617Z,349.80
2019-01-13T01:10:59.769Z,80.63
2019-01-13T01:13:29.929Z,433.97
2019-01-13T01:16:19.724Z,285.80
2019-01-13T01:19:05.339Z,67.60
2019-01-13T01:22:09.849Z,152.17
2019-01-13T01:24:37.306Z,63.60
2019-01-13T01:27:27.049Z,34.77
2019-01-13T01:33:40.941Z,98.17
2019-01-13T01:36:06.418Z,176.57
2019-01-13T01:38:51.978Z,84.00
2019-01-13T01:41:47.435Z,144.60
2019-01-13T01:44:35.045Z,123.50
2019-01-13T01:50:32.628Z,301.10
2019-01-13T01:53:14.210Z,84.40
2019-01-13T01:59:32.827Z,198.90
2019-01-13T02:02:39.085Z,265.07
2019-01-13T02:05:07.439Z,84.70
2019-01-13T02:08:11.585Z,145.30
2019-01-13T02:10:37.237Z,103.80
2019-01-13T02:13:20.692Z,120.73
2019-01-13T02:16:04.981Z,175.47
2019-01-13T02:18:48.208Z,65.93
2019-01-13T02:21:31.062Z,73.50
2019-01-13T02:24:04.622Z,196.07
2019-01-13T02:26:49.077Z,23.17
2019-01-13T02:29:48.129Z,83.77
2019-01-13T02:35:45.900Z,113.40
2019-01-13T02:38:27.448Z,215.63
2019-01-13T02:44:28.489Z,158.80
2019-01-13T02:47:09.943Z,126.80
2019-01-13T02:49:42.097Z,43.67
2019-01-13T02:52:31.715Z,53.57
2019-01-13T02:58:09.939Z,134.50
2019-01-13T03:00:42.113Z,143.03
2019-01-13T03:09:24.923Z,48.50
2019-01-13T03:11:55.159Z,107.20
2019-01-13T03:14:25.614Z,206.43
2019-01-13T03:17:02.692Z,78.97
2019-01-13T03:20:11.149Z,185.13
2019-01-13T03:23:00.246Z,69.23
2019-01-13T03:26:19.576Z,39.70
2019-01-13T03:29:03.947Z,44.93
2019-01-13T03:31:45.675Z,45.70
2019-01-13T03:34:15.604Z,20.30
2019-01-13T03:37:23.411Z,23.43
2019-01-13T03:40:17.853Z,22.90
2019-01-13T03:43:00.932Z,24.63
2019-01-13T03:45:51.469Z,21.83
2019-01-13T03:48:35.301Z,26.13
2019-01-13T03:54:20.853Z,31.80
2019-01-13T04:00:09.376Z,27.97
2019-01-13T04:02:51.426Z,22.80
2019-01-13T04:05:41.771Z,25.87
2019-01-13T04:11:39.807Z,24.07
2019-01-13T04:20:09.945Z,20.17
2019-01-13T04:22:39.962Z,19.73
2019-01-13T04:25:28.630Z,21.37
2019-01-13T04:28:19.965Z,16.80
2019-01-13T04:30:50.969Z,22.83
2019-01-13T04:33:53.221Z,19.70
2019-01-13T04:36:11.956Z,16.97
2019-01-13T04:39:00.919Z,16.93
2019-01-13T04:41:31.220Z,20.07
2019-01-13T04:44:01.047Z,17.50
2019-01-13T04:46:50.289Z,15.30
2019-01-13T04:49:20.293Z,17.37
2019-01-13T04:52:09.400Z,17.07
2019-01-13T04:54:39.814Z,16.67
2019-01-13T04:57:28.942Z,15.27
2019-01-13T04:59:58.961Z,17.80
2019-01-13T05:02:47.940Z,15.57
2019-01-13T05:05:19.085Z,13.97
2019-01-13T05:07:49.315Z,14.67
2019-01-13T05:10:20.327Z,16.57
2019-01-13T05:12:50.268Z,13.77
2019-01-13T05:15:20.133Z,13.30
2019-01-13T05:17:51.740Z,14.83
2019-01-13T05:23:11.439Z,13.63
2019-01-13T05:25:41.321Z,14.90
2019-01-13T05:28:30.821Z,13.97
2019-01-13T05:31:14.054Z,14.03
2019-01-13T05:33:55.771Z,12.67
2019-01-13T05:36:38.586Z,13.40
2019-01-13T05:39:31.416Z,13.77
2019-01-13T05:42:20.603Z,12.73
2019-01-13T05:44:51.080Z,13.10
2019-01-13T05:51:25.274Z,14.00
2019-01-13T05:56:46.393Z,12.20
2019-01-13T05:59:35.331Z,15.67
2019-01-13T06:02:24.614Z,14.00
2019-01-13T06:05:05.746Z,14.13
2019-01-13T06:07:47.376Z,16.27
2019-01-13T06:10:29.221Z,14.60
2019-01-13T06:13:10.724Z,17.30
2019-01-13T06:15:52.183Z,13.37
2019-01-13T06:18:22.401Z,16.07
2019-01-13T06:21:11.044Z,18.13
2019-01-13T06:23:59.986Z,15.67
2019-01-13T06:26:49.421Z,16.70
2019-01-13T06:29:19.314Z,14.73
2019-01-13T06:31:56.097Z,16.53
2019-01-13T06:34:40.411Z,16.07
2019-01-13T06:37:10.792Z,15.60
2019-01-13T06:39:40.900Z,14.70
2019-01-13T06:42:10.588Z,15.83
2019-01-13T06:44:40.388Z,16.40
2019-01-13T06:47:29.211Z,15.60
2019-01-13T06:50:10.499Z,14.77
2019-01-13T06:52:40.694Z,14.50
2019-01-13T06:55:29.596Z,13.93
2019-01-13T06:58:01.442Z,14.17
2019-01-13T07:54:10.153Z,11.83
2019-01-13T08:14:40.533Z,9.03
2019-01-13T08:47:51.560Z,9.87
2019-01-13T09:05:54.008Z,7.80
2019-01-13T09:38:35.754Z,13.27
2019-01-13T20:36:54.588Z,5.13
2019-01-13T20:40:04.329Z,5.50
2019-01-13T20:46:03.259Z,4.10
2019-01-13T20:48:59.960Z,5.10
2019-01-13T20:54:35.211Z,8.80
2019-01-13T21:00:53.036Z,5.03
2019-01-13T21:03:34.629Z,5.47
2019-01-13T21:06:19.684Z,7.33
2019-01-13T21:09:04.799Z,10.00
2019-01-13T21:11:43.686Z,7.27
2019-01-13T21:14:33.657Z,4.03
2019-01-13T21:17:08.354Z,3.40
2019-01-13T21:20:16.725Z,5.20
2019-01-13T21:23:26.317Z,6.37
2019-01-13T21:26:08.456Z,7.50
2019-01-13T21:28:51.765Z,3.77
2019-01-13T21:31:36.952Z,7.53
2019-01-13T21:34:15.008Z,7.50
2019-01-13T21:37:06.944Z,4.97
2019-01-13T21:39:37.523Z,5.23
2019-01-13T21:42:29.868Z,5.20
2019-01-13T21:45:11.516Z,6.40
2019-01-13T21:47:54.147Z,4.60
2019-01-13T21:50:44.801Z,6.00
2019-01-13T21:53:34.267Z,5.93
2019-01-13T21:56:17.065Z,4.87
2019-01-13T21:58:58.707Z,5.93
2019-01-13T22:01:40.656Z,8.90
2019-01-13T22:04:23.811Z,6.30
2019-01-13T22:07:11.348Z,4.63
2019-01-13T22:09:53.062Z,6.00
2019-01-13T22:13:19.273Z,8.27
2019-01-13T22:15:50.087Z,5.63
2019-01-13T22:18:31.658Z,11.40
2019-01-13T22:24:35.947Z,5.43
2019-01-13T22:27:08.482Z,8.20
2019-01-13T22:29:50.264Z,9.70
2019-01-13T22:32:19.862Z,8.10
2019-01-13T22:35:08.839Z,6.17
2019-01-13T22:37:57.845Z,7.07
2019-01-13T22:43:35.520Z,4.90
2019-01-13T22:46:20.346Z,7.30
2019-01-13T22:58:05.474Z,4.90
2019-01-13T23:01:20.539Z,6.43
2019-01-13T23:04:04.911Z,5.37
2019-01-13T23:06:43.176Z,5.20
2019-01-13T23:09:34.656Z,7.40
2019-01-13T23:15:36.576Z,4.17
2019-01-13T23:18:29.117Z,4.07
2019-01-13T23:21:10.662Z,3.40
2019-01-13T23:23:52.973Z,4.20
2019-01-13T23:29:59.137Z,3.57
2019-01-13T23:32:32.380Z,3.73
2019-01-13T23:35:07.094Z,6.10
2019-01-13T23:37:37.432Z,16.80
2019-01-13T23:40:11.933Z,7.77
2019-01-13T23:42:42.082Z,7.83
2019-01-13T23:45:16.310Z,5.43
2019-01-13T23:47:49.423Z,5.60
2019-01-13T23:51:00.024Z,5.93
2019-01-13T23:56:35.670Z,6.27
2019-01-13T23:59:17.113Z,8.57
